Terminal Aerodrome Forecast
Issued by NWS

Home | Current Version | Previous Version | Text Only | Print | Product List | Glossary On
Versions: 1 2 3 4 5 6 7 8 9 10 11 12 13 14 15 16 17 18 19
000
FTUS41 KBGM 011620 AAA
TAFRME
TAF AMD
KRME 011620Z 0116/0212 13005KT P6SM -RA OVC025
      TEMPO 0116/0119 2SM -RA BR OVC018
     FM011900 16010KT P6SM -SHRA OVC025
     FM020000 14008KT P6SM SCT015 OVC025
     FM020900 13005KT 4SM -RA BR OVC015=

USA.gov is the U.S. government's official web portal to all federal, state and local government web resources and services.